Time;durP1;ratioP1;P1;durP2;ratioP2;P2;SDS_P1;SDS_P2;PMS_P1;PMS_P2;Temp;Humidity;BMP_temperature;BMP_pressure;BME280_temperature;BME280_humidity;BME280_pressure;Samples;Min_cycle;Max_cycle;Signal;HPM_P1;HPM_P2
2022/12/03 00:02:04;;;;;;;34.13;20.17;;;;;;;6.69;70.76;101786.47;5052306;28;20025;-75
2022/12/03 00:04:29;;;;;;;35.47;19.80;;;;;;;7.02;70.91;101830.31;5052660;28;20029;-76
2022/12/03 00:06:54;;;;;;;34.80;18.90;;;;;;;6.72;71.25;101770.28;5051773;28;20025;-76
2022/12/03 00:09:20;;;;;;;30.58;17.65;;;;;;;6.97;70.99;101829.66;5053640;28;20459;-79
2022/12/03 00:11:45;;;;;;;34.13;17.38;;;;;;;6.84;71.36;101801.78;5053444;28;20032;-75
2022/12/03 00:14:11;;;;;;;26.67;16.67;;;;;;;6.91;70.91;101797.00;5049568;28;20425;-76
2022/12/03 00:16:36;;;;;;;28.67;17.73;;;;;;;7.03;71.34;101826.69;5050621;28;20033;-76
2022/12/03 00:19:02;;;;;;;32.03;18.75;;;;;;;7.16;71.26;101835.00;5044715;28;20121;-75
2022/12/03 00:21:27;;;;;;;34.22;16.67;;;;;;;7.10;70.66;101829.94;5033029;28;20020;-75
2022/12/03 00:23:53;;;;;;;35.08;18.98;;;;;;;7.11;70.58;101835.22;5049108;28;20546;-75
2022/12/03 00:26:18;;;;;;;38.55;17.80;;;;;;;7.15;70.89;101835.09;5050331;28;20094;-75
2022/12/03 00:28:44;;;;;;;29.88;16.92;;;;;;;7.19;71.15;101836.66;5051212;28;20457;-74
2022/12/03 00:31:09;;;;;;;28.15;17.17;;;;;;;7.15;70.99;101838.63;5046690;28;20033;-75
2022/12/03 00:33:35;;;;;;;27.63;17.50;;;;;;;7.14;70.77;101847.59;5049360;28;20075;-76
2022/12/03 00:36:00;;;;;;;31.48;18.73;;;;;;;7.09;71.17;101847.78;5049016;28;20025;-75
2022/12/03 00:38:25;;;;;;;29.45;17.70;;;;;;;6.93;71.53;101811.16;5049545;28;20028;-74
2022/12/03 00:40:51;;;;;;;29.42;16.33;;;;;;;7.17;71.12;101842.09;5049007;28;20024;-74
2022/12/03 00:43:16;;;;;;;28.80;17.17;;;;;;;7.15;70.79;101833.28;5048763;28;20041;-76
2022/12/03 00:45:42;;;;;;;27.38;15.07;;;;;;;7.14;70.79;101852.94;5048893;28;20029;-75
2022/12/03 00:48:07;;;;;;;34.10;17.45;;;;;;;7.17;70.99;101847.44;5048568;28;20033;-75
2022/12/03 00:50:32;;;;;;;27.95;15.68;;;;;;;7.19;70.54;101855.38;5054151;28;20053;-76
2022/12/03 00:52:58;;;;;;;30.70;16.95;;;;;;;7.19;70.60;101852.69;5053456;28;20036;-76
2022/12/03 00:55:23;;;;;;;34.75;16.92;;;;;;;7.25;70.97;101847.94;5052729;28;20059;-74
2022/12/03 00:57:49;;;;;;;28.50;16.73;;;;;;;7.30;70.71;101847.72;5049113;28;20072;-75
2022/12/03 01:00:14;;;;;;;27.88;16.48;;;;;;;7.20;70.75;101847.28;5048528;28;20510;-75
2022/12/03 01:02:40;;;;;;;27.15;14.05;;;;;;;7.15;71.09;101843.97;5048430;28;20035;-74
2022/12/03 01:05:06;;;;;;;28.77;15.88;;;;;;;7.15;70.56;101843.97;5048072;28;20495;-75
2022/12/03 01:07:31;;;;;;;31.23;15.38;;;;;;;7.13;70.76;101853.88;5048505;28;20481;-75
2022/12/03 01:09:56;;;;;;;27.73;14.23;;;;;;;7.00;71.13;101828.66;5048371;28;20104;-74
2022/12/03 01:12:22;;;;;;;31.17;16.30;;;;;;;7.06;71.12;101833.72;5047379;28;20021;-75
2022/12/03 01:14:47;;;;;;;25.77;16.25;;;;;;;6.81;70.76;101806.41;5028270;28;20025;-74
2022/12/03 01:17:13;;;;;;;25.23;14.30;;;;;;;6.76;71.14;101793.22;5047387;28;20071;-75
2022/12/03 01:19:39;;;;;;;26.17;14.88;;;;;;;6.97;71.21;101844.84;5047628;28;20515;-75
2022/12/03 01:22:06;;;;;;;28.10;16.15;;;;;;;6.88;71.30;101845.28;5048422;28;20057;-75
2022/12/03 01:24:32;;;;;;;31.60;16.05;;;;;;;6.62;71.98;101816.19;5048271;28;20476;-76
2022/12/03 01:26:57;;;;;;;29.17;15.82;;;;;;;6.71;72.29;101842.50;5046627;28;20075;-76
2022/12/03 01:29:23;;;;;;;25.35;15.18;;;;;;;6.69;73.08;101855.09;5048183;28;20021;-75
2022/12/03 01:34:32;;;;;;;29.70;15.18;;;;;;;6.68;72.90;101853.34;5047794;28;20040;-75
2022/12/03 01:36:58;;;;;;;29.20;16.40;;;;;;;6.54;73.28;101828.09;5047823;28;20029;-75
2022/12/03 01:39:23;;;;;;;31.45;15.65;;;;;;;6.53;72.89;101813.03;5048122;28;20090;-76
2022/12/03 01:41:51;;;;;;;30.05;16.55;;;;;;;6.80;72.79;101852.78;5047878;28;20028;-77
2022/12/03 01:44:28;;;;;;;28.73;15.95;;;;;;;6.86;72.64;101853.38;5030678;28;20044;-75
2022/12/03 01:46:56;;;;;;;25.60;15.35;;;;;;;6.84;72.80;101854.38;5030445;28;20025;-75
2022/12/03 01:49:25;;;;;;;28.30;16.25;;;;;;;6.71;72.59;101826.47;5032184;28;20037;-76
2022/12/03 01:51:52;;;;;;;25.15;15.93;;;;;;;6.88;72.56;101847.97;5031851;28;20053;-74
2022/12/03 01:54:35;;;;;;;28.90;16.30;;;;;;;6.57;72.84;101809.25;5048259;28;20033;-75
2022/12/03 01:57:01;;;;;;;24.02;15.05;;;;;;;6.86;72.59;101857.84;5056066;28;20060;-75
2022/12/03 01:59:37;;;;;;;30.50;17.20;;;;;;;6.82;72.58;101841.06;5056705;28;20044;-75
2022/12/03 02:02:22;;;;;;;29.63;16.40;;;;;;;6.79;72.59;101840.38;5053132;28;20025;-75
2022/12/03 02:04:49;;;;;;;26.08;15.25;;;;;;;6.45;72.97;101796.44;5051540;28;20086;-74
2022/12/03 02:07:29;;;;;;;32.47;16.52;;;;;;;6.62;73.24;101816.19;5050921;28;20036;-76
2022/12/03 02:09:57;;;;;;;21.98;14.10;;;;;;;6.84;73.42;101849.03;5050941;28;20100;-75
2022/12/03 02:12:36;;;;;;;24.27;14.35;;;;;;;6.66;72.99;101820.47;5050768;28;20119;-77
2022/12/03 02:15:02;;;;;;;25.23;15.73;;;;;;;6.96;73.06;101853.81;5051124;28;20025;-75
2022/12/03 02:17:27;;;;;;;27.27;15.75;;;;;;;6.93;73.20;101861.97;5051351;28;20044;-75
2022/12/03 02:19:54;;;;;;;27.92;15.57;;;;;;;6.84;73.38;101854.38;5054693;28;20025;-75
2022/12/03 02:22:31;;;;;;;32.42;17.00;;;;;;;6.77;73.40;101863.63;5051480;28;20032;-75
2022/12/03 02:25:15;;;;;;;33.15;18.08;;;;;;;6.83;73.60;101863.34;5050901;28;20036;-76
2022/12/03 02:27:41;;;;;;;38.60;18.30;;;;;;;6.82;73.22;101851.75;5050603;28;20037;-76
2022/12/03 02:30:10;;;;;;;26.45;14.82;;;;;;;6.83;73.29;101863.34;5050802;28;20036;-75
2022/12/03 02:32:36;;;;;;;32.35;18.13;;;;;;;6.61;73.31;101830.50;5050398;28;20025;-75
2022/12/03 02:35:02;;;;;;;28.92;16.52;;;;;;;6.72;73.34;101841.59;5050432;28;20082;-75
2022/12/03 02:37:35;;;;;;;30.23;16.50;;;;;;;6.93;73.72;101860.19;5050448;28;20029;-74
2022/12/03 02:40:11;;;;;;;25.25;14.82;;;;;;;6.92;73.06;101862.91;5050149;28;20038;-74
2022/12/03 02:42:36;;;;;;;26.60;16.02;;;;;;;6.75;73.06;101833.41;5030904;28;20061;-76
2022/12/03 02:45:02;;;;;;;25.13;15.05;;;;;;;7.02;72.91;101869.56;5050577;28;20033;-76
2022/12/03 02:47:30;;;;;;;25.95;15.00;;;;;;;6.95;72.67;101868.13;5050464;28;20033;-75
2022/12/03 02:49:56;;;;;;;32.28;15.02;;;;;;;6.95;72.88;101874.34;5050488;28;20052;-75
2022/12/03 02:52:22;;;;;;;22.92;14.38;;;;;;;6.72;72.51;101822.88;5048798;28;20064;-76
2022/12/03 02:54:48;;;;;;;23.98;13.45;;;;;;;6.99;73.24;101865.25;5049479;28;20059;-76
2022/12/03 02:57:15;;;;;;;25.00;14.52;;;;;;;7.00;72.39;101866.94;5050947;28;20040;-75
2022/12/03 02:59:41;;;;;;;21.23;13.90;;;;;;;7.00;72.85;101871.47;5050495;28;20033;-74
2022/12/03 03:02:06;;;;;;;22.77;14.18;;;;;;;6.86;72.65;101847.16;5052019;28;20117;-76
2022/12/03 03:04:32;;;;;;;27.15;13.85;;;;;;;6.80;72.55;101836.72;5054181;28;20036;-74
2022/12/03 03:06:58;;;;;;;25.38;13.55;;;;;;;6.97;72.06;101867.09;5057719;28;20036;-76
2022/12/03 03:09:23;;;;;;;33.63;13.60;;;;;;;7.02;72.38;101870.44;5047772;28;20043;-74
2022/12/03 03:11:48;;;;;;;22.23;13.27;;;;;;;6.80;72.12;101847.44;5049664;28;20037;-75
2022/12/03 03:14:14;;;;;;;20.92;12.55;;;;;;;7.05;72.08;101877.44;5049764;28;20033;-75
2022/12/03 03:16:40;;;;;;;24.50;13.23;;;;;;;7.06;72.30;101871.16;5050543;28;20025;-75
2022/12/03 03:19:05;;;;;;;22.98;12.63;;;;;;;7.02;72.29;101881.16;5050757;28;20411;-75
2022/12/03 03:21:31;;;;;;;22.63;12.27;;;;;;;7.08;72.00;101879.97;5050395;28;20193;-76
2022/12/03 03:23:56;;;;;;;22.98;12.43;;;;;;;7.09;72.36;101881.72;5050328;28;20040;-75
2022/12/03 03:26:22;;;;;;;22.27;13.00;;;;;;;7.08;71.73;101886.22;5049482;28;20515;-76
2022/12/03 03:28:50;;;;;;;23.15;13.88;;;;;;;7.05;71.93;101891.69;5029872;28;20504;-76
2022/12/03 03:31:19;;;;;;;21.70;11.80;;;;;;;7.05;71.69;101888.16;5029477;28;20033;-75
2022/12/03 03:33:47;;;;;;;20.63;12.90;;;;;;;7.03;71.68;101888.22;5029849;28;20095;-75
2022/12/03 03:36:14;;;;;;;21.58;12.73;;;;;;;6.74;71.60;101842.38;5029729;28;20025;-75
2022/12/03 03:38:40;;;;;;;22.55;13.15;;;;;;;7.02;71.85;101888.28;5029691;28;21070;-75
2022/12/03 03:41:07;;;;;;;26.67;14.75;;;;;;;7.04;72.00;101894.44;5029635;28;20033;-76
2022/12/03 03:43:36;;;;;;;23.92;13.60;;;;;;;6.97;71.66;101887.66;5056495;28;20118;-74
2022/12/03 03:46:04;;;;;;;23.33;14.00;;;;;;;7.06;71.73;101893.41;5049752;28;20027;-75
2022/12/03 03:48:30;;;;;;;24.80;14.25;;;;;;;7.10;71.95;101899.50;5049997;28;20412;-75
2022/12/03 03:50:56;;;;;;;27.83;14.82;;;;;;;7.11;71.51;101898.56;5053078;28;20045;-74
2022/12/03 03:53:23;;;;;;;25.17;14.18;;;;;;;7.12;71.58;101905.66;5052189;28;20534;-73
2022/12/03 03:55:49;;;;;;;26.88;13.63;;;;;;;7.03;71.85;101903.41;5049145;28;20658;-75
2022/12/03 03:58:14;;;;;;;24.77;12.93;;;;;;;6.93;71.59;101905.66;5049183;28;20090;-75
2022/12/03 04:00:43;;;;;;;25.33;14.30;;;;;;;6.92;71.82;101906.56;5049610;28;20079;-78
2022/12/03 04:03:09;;;;;;;23.35;13.43;;;;;;;6.88;72.06;101904.13;5049070;28;20025;-76
2022/12/03 04:05:35;;;;;;;21.23;12.20;;;;;;;6.99;72.14;101915.19;5049134;28;20503;-75
2022/12/03 04:08:00;;;;;;;22.40;12.88;;;;;;;6.84;72.23;101879.31;5050813;28;20025;-75
2022/12/03 04:13:10;;;;;;;20.77;12.15;;;;;;;6.95;71.71;101918.94;5056192;28;20084;-75
2022/12/03 04:15:35;;;;;;;21.58;12.30;;;;;;;6.84;71.40;101908.75;5049192;28;20033;-75
2022/12/03 04:20:44;;;;;;;19.95;12.23;;;;;;;6.71;71.82;101938.75;5048917;28;20048;-74
2022/12/03 04:23:10;;;;;;;20.17;12.23;;;;;;;6.60;72.00;101930.34;5048699;28;20028;-75
2022/12/03 04:35:41;;;;;;;23.80;13.00;;;;;;;6.49;73.14;101937.03;5048630;28;20076;-74
2022/12/03 04:36:34;;;;;;;22.63;12.15;;;;;;;6.43;73.33;101945.31;5049105;28;20499;-74
2022/12/03 04:38:59;;;;;;;25.58;12.57;;;;;;;6.39;73.21;101942.84;5049111;28;20021;-77
2022/12/03 04:41:25;;;;;;;21.88;12.30;;;;;;;6.37;73.52;101939.38;5048702;28;20035;-77
2022/12/03 04:46:34;;;;;;;19.75;11.65;;;;;;;6.42;73.89;101943.56;5048727;28;20115;-75
2022/12/03 04:49:00;;;;;;;16.50;9.90;;;;;;;6.53;73.38;101949.34;5048801;28;20423;-75
2022/12/03 04:51:25;;;;;;;18.38;11.23;;;;;;;6.50;73.24;101944.13;5048587;28;20052;-75
2022/12/03 04:53:50;;;;;;;16.63;9.50;;;;;;;6.53;73.36;101952.00;5048681;28;20021;-75
2022/12/03 04:56:16;;;;;;;18.42;10.63;;;;;;;6.58;72.60;101944.66;5048613;28;20032;-75
2022/12/03 04:58:41;;;;;;;19.42;10.90;;;;;;;6.51;72.57;101935.16;5048200;28;20071;-75
2022/12/03 05:01:07;;;;;;;22.02;12.63;;;;;;;6.54;72.57;101956.41;5048027;28;20032;-77
2022/12/03 05:03:32;;;;;;;18.80;12.13;;;;;;;6.55;72.48;101952.81;5062845;28;20048;-76
2022/12/03 05:05:57;;;;;;;25.08;11.93;;;;;;;6.57;72.71;101961.59;5049271;28;20116;-76
2022/12/03 05:08:23;;;;;;;16.90;10.55;;;;;;;6.60;72.61;101949.94;5056280;28;20025;-76
2022/12/03 05:10:48;;;;;;;20.45;10.73;;;;;;;6.64;72.73;101958.66;5048498;28;20040;-76
2022/12/03 05:13:14;;;;;;;19.23;11.55;;;;;;;6.58;72.46;101954.47;5049899;28;20025;-75
2022/12/03 05:15:39;;;;;;;20.88;12.23;;;;;;;6.67;72.22;101958.53;5059048;28;20108;-76
2022/12/03 05:18:04;;;;;;;20.10;11.50;;;;;;;6.70;72.04;101964.63;5059397;28;20057;-76
2022/12/03 05:20:42;;;;;;;21.70;12.40;;;;;;;6.64;71.98;101958.66;5053920;28;20115;-75
2022/12/03 05:23:12;;;;;;;18.85;10.82;;;;;;;6.58;72.26;101963.34;5052486;28;20453;-75
2022/12/03 05:25:38;;;;;;;19.90;11.48;;;;;;;6.60;72.15;101968.66;5051828;28;20036;-76
2022/12/03 05:28:04;;;;;;;25.55;13.40;;;;;;;6.62;72.30;101973.91;5052729;28;20445;-79
2022/12/03 05:30:30;;;;;;;22.20;12.50;;;;;;;6.51;72.23;101969.91;5052873;28;20033;-76
2022/12/03 05:32:55;;;;;;;24.40;12.60;;;;;;;6.61;72.80;101966.81;5052417;28;20403;-76
2022/12/03 05:35:21;;;;;;;20.98;12.70;;;;;;;6.71;72.46;101970.84;5052716;28;20071;-76
2022/12/03 05:37:46;;;;;;;26.25;13.02;;;;;;;6.71;72.43;101970.84;5051945;28;20457;-75
2022/12/03 05:40:12;;;;;;;24.88;14.32;;;;;;;6.61;71.90;101974.84;5052046;28;20037;-76
2022/12/03 05:42:53;;;;;;;25.45;14.77;;;;;;;6.57;72.21;101979.47;5052592;28;20057;-76
2022/12/03 05:45:30;;;;;;;25.23;13.38;;;;;;;6.65;72.50;101992.50;5051787;28;20029;-77
2022/12/03 05:47:56;;;;;;;25.60;13.77;;;;;;;6.69;72.51;101988.75;5052153;28;20044;-76
2022/12/03 05:50:23;;;;;;;26.90;14.32;;;;;;;6.78;72.60;101999.06;5051982;28;20049;-75
2022/12/03 05:52:49;;;;;;;28.23;15.23;;;;;;;6.75;71.73;102000.06;5051470;28;20483;-75
2022/12/03 05:55:15;;;;;;;26.85;15.70;;;;;;;6.79;72.08;101995.47;5052037;28;20122;-77
2022/12/03 05:57:56;;;;;;;35.80;20.92;;;;;;;6.83;71.82;102005.06;4990239;28;20518;-76
2022/12/03 06:00:24;;;;;;;36.35;17.48;;;;;;;6.80;72.23;101991.81;4973497;28;20121;-77
2022/12/03 06:02:50;;;;;;;32.20;16.00;;;;;;;6.83;71.81;101999.72;4990587;28;20513;-76
2022/12/03 06:05:18;;;;;;;34.05;18.35;;;;;;;6.73;71.45;101985.88;4992728;28;20088;-77
2022/12/03 06:07:44;;;;;;;28.92;16.13;;;;;;;6.89;71.49;102007.47;4993020;28;20037;-78
2022/12/03 06:10:12;;;;;;;30.17;17.60;;;;;;;6.92;71.72;102008.19;4992074;28;20043;-75
2022/12/03 06:12:37;;;;;;;33.30;16.42;;;;;;;6.88;71.73;102014.63;4991013;28;20034;-74
2022/12/03 06:15:03;;;;;;;29.15;14.85;;;;;;;6.82;71.30;102008.69;4989677;28;20038;-74
2022/12/03 06:17:29;;;;;;;30.95;16.27;;;;;;;6.83;71.51;102013.97;4992997;28;20038;-77
2022/12/03 06:19:54;;;;;;;32.20;17.30;;;;;;;6.82;71.29;102016.72;4994782;28;20054;-74
2022/12/03 06:22:20;;;;;;;32.83;18.40;;;;;;;6.75;71.04;102024.13;4994132;28;20162;-74
2022/12/03 06:24:45;;;;;;;37.28;18.25;;;;;;;6.69;71.52;102020.84;4989559;28;20057;-76
2022/12/03 06:27:11;;;;;;;40.67;20.13;;;;;;;6.65;72.01;102013.88;4989667;28;20038;-74
2022/12/03 06:29:36;;;;;;;44.42;22.83;;;;;;;6.43;72.11;101988.06;4991898;28;20038;-75
2022/12/03 06:32:03;;;;;;;52.28;27.75;;;;;;;6.51;72.51;102012.66;4991588;28;20482;-74
2022/12/03 06:34:29;;;;;;;39.15;21.00;;;;;;;6.49;72.67;102006.53;5004212;28;20416;-76
2022/12/03 06:36:55;;;;;;;31.85;17.35;;;;;;;5.99;72.42;101922.31;5050427;28;20033;-76
2022/12/03 06:39:20;;;;;;;32.50;17.88;;;;;;;6.48;73.06;102011.94;5051993;28;20029;-77
2022/12/03 06:41:46;;;;;;;37.10;18.27;;;;;;;6.52;73.11;102019.75;5053029;28;20108;-79
2022/12/03 06:44:11;;;;;;;32.10;16.38;;;;;;;6.58;73.18;102010.59;5052760;28;20496;-75
2022/12/03 06:46:37;;;;;;;28.88;16.45;;;;;;;6.50;72.54;102008.25;5051269;28;20033;-75
2022/12/03 06:49:02;;;;;;;26.88;15.80;;;;;;;6.46;72.09;102014.66;5051341;28;20029;-77
2022/12/03 06:51:28;;;;;;;41.20;16.33;;;;;;;6.51;72.08;102012.66;5051629;28;20570;-76
2022/12/03 06:53:53;;;;;;;33.05;18.30;;;;;;;6.51;72.52;102023.34;5052162;28;20033;-76
2022/12/03 06:56:19;;;;;;;39.97;18.10;;;;;;;6.54;72.27;102017.03;5050376;28;20101;-76
2022/12/03 06:58:44;;;;;;;33.47;18.60;;;;;;;6.32;72.82;101974.31;5050195;28;20028;-75
2022/12/03 07:01:10;;;;;;;31.60;18.80;;;;;;;6.61;72.78;102018.50;5050472;28;20036;-74
2022/12/03 07:03:35;;;;;;;36.60;16.60;;;;;;;6.69;73.06;102020.84;5050164;28;20017;-76
2022/12/03 07:06:01;;;;;;;44.47;18.85;;;;;;;6.74;72.74;102021.50;5050541;28;20674;-75
2022/12/03 07:08:27;;;;;;;33.97;17.90;;;;;;;6.77;72.31;102018.69;5050385;28;20540;-76
2022/12/03 07:10:52;;;;;;;39.33;18.50;;;;;;;6.81;72.30;102026.53;5050485;28;20029;-76
2022/12/03 07:13:18;;;;;;;38.10;18.08;;;;;;;6.79;71.87;102014.16;5049785;28;20029;-76
2022/12/03 07:15:43;;;;;;;35.70;18.52;;;;;;;6.86;71.91;102019.16;5050024;28;20094;-75
2022/12/03 07:18:09;;;;;;;48.65;21.00;;;;;;;6.66;72.27;101972.84;5049508;28;20021;-76
2022/12/03 07:20:34;;;;;;;40.13;20.33;;;;;;;7.03;72.43;102015.75;5050114;28;20025;-75
2022/12/03 07:23:00;;;;;;;34.97;19.75;;;;;;;7.10;71.99;102025.22;5056563;28;20024;-76
2022/12/03 07:25:25;;;;;;;33.35;18.38;;;;;;;7.14;70.87;102018.81;5057483;28;20039;-75
2022/12/03 07:27:51;;;;;;;31.20;16.63;;;;;;;7.12;70.14;102020.69;5053465;28;20039;-74
2022/12/03 07:30:16;;;;;;;35.83;18.08;;;;;;;7.04;70.07;102028.19;5049346;28;20029;-76
2022/12/03 07:32:42;;;;;;;35.08;16.00;;;;;;;6.86;71.16;102018.28;5050033;28;20029;-76
2022/12/03 07:35:08;;;;;;;40.50;16.65;;;;;;;6.94;71.39;102017.00;5048636;28;20029;-75
2022/12/03 07:37:33;;;;;;;33.42;17.17;;;;;;;6.87;71.47;102026.25;5049033;28;20116;-76
2022/12/03 07:39:59;;;;;;;37.63;16.90;;;;;;;6.96;71.70;102025.00;5049664;28;20040;-77
2022/12/03 07:42:25;;;;;;;32.15;17.38;;;;;;;7.00;71.67;102005.19;5049256;28;20035;-75
2022/12/03 07:44:50;;;;;;;31.98;14.98;;;;;;;7.15;71.28;102035.75;5049809;28;20037;-75
2022/12/03 07:47:16;;;;;;;44.40;18.83;;;;;;;7.35;71.00;102041.06;5047909;28;20021;-78
2022/12/03 07:49:41;;;;;;;41.92;16.40;;;;;;;7.48;70.50;102032.41;5049289;28;20044;-76
2022/12/03 07:52:07;;;;;;;63.40;18.70;;;;;;;7.62;70.33;102043.34;5051273;28;20037;-75
2022/12/03 07:54:32;;;;;;;55.53;15.98;;;;;;;7.45;69.49;102000.44;5050614;28;20103;-75
2022/12/03 07:56:58;;;;;;;40.13;15.07;;;;;;;7.61;69.14;102040.75;5050060;28;20496;-74
2022/12/03 07:59:23;;;;;;;50.63;18.05;;;;;;;7.67;69.49;102035.94;5049332;28;20032;-75
2022/12/03 08:01:48;;;;;;;33.67;17.35;;;;;;;7.78;69.80;102042.59;5048910;28;20039;-75
2022/12/03 08:04:17;;;;;;;43.55;20.38;;;;;;;7.86;69.35;102041.31;5049136;28;20029;-76
2022/12/03 08:06:43;;;;;;;46.13;18.75;;;;;;;7.95;69.16;102040.03;5046896;28;20112;-75
2022/12/03 08:09:08;;;;;;;48.20;17.55;;;;;;;7.96;68.00;102031.88;5048350;28;20375;-75
2022/12/03 08:11:33;;;;;;;30.83;15.68;;;;;;;8.07;68.40;102039.44;5047583;28;20029;-75
2022/12/03 08:13:59;;;;;;;39.55;16.30;;;;;;;8.12;68.11;102037.38;5049125;28;20031;-76
2022/12/03 08:16:25;;;;;;;41.63;17.95;;;;;;;8.17;67.88;102027.28;5048938;28;20048;-75
2022/12/03 08:18:56;;;;;;;60.13;25.83;;;;;;;8.21;67.24;102028.88;5047855;28;20029;-76
2022/12/03 08:21:21;;;;;;;44.47;22.70;;;;;;;8.07;67.44;102013.47;5048991;28;20021;-77
2022/12/03 08:23:47;;;;;;;47.83;17.25;;;;;;;8.09;67.01;102002.69;5049688;28;20052;-77
2022/12/03 08:26:21;;;;;;;43.13;16.63;;;;;;;8.32;67.01;102031.94;5054298;28;20032;-78
2022/12/03 08:28:47;;;;;;;33.03;17.80;;;;;;;8.32;67.01;102044.50;5055494;28;20055;-75
2022/12/03 08:31:19;;;;;;;42.13;17.05;;;;;;;8.40;67.09;102037.78;5051246;28;20033;-75
2022/12/03 08:33:48;;;;;;;55.90;15.40;;;;;;;8.45;67.02;102041.09;5049810;28;20033;-76
2022/12/03 08:36:30;;;;;;;31.90;16.35;;;;;;;8.43;66.30;102042.13;5049623;28;20071;-76
2022/12/03 08:39:22;;;;;;;28.52;15.10;;;;;;;8.48;66.80;102040.06;5048636;28;20047;-78
2022/12/03 08:44:40;;;;;;;28.83;15.45;;;;;;;8.64;65.85;102031.19;5048687;28;20116;-76
2022/12/03 08:47:05;;;;;;;28.67;15.10;;;;;;;8.59;65.89;102027.84;5048766;28;20087;-77
2022/12/03 08:49:30;;;;;;;27.13;13.32;;;;;;;8.63;65.99;102026.75;5048809;28;20029;-76
2022/12/03 08:51:59;;;;;;;35.03;15.48;;;;;;;8.56;65.80;102011.91;5048705;28;20049;-77
2022/12/03 08:54:25;;;;;;;30.77;16.48;;;;;;;8.83;65.57;102024.88;5053142;28;20017;-77
2022/12/03 08:56:51;;;;;;;46.17;16.90;;;;;;;8.85;65.52;102015.78;5052701;28;20032;-78
2022/12/03 08:59:23;;;;;;;43.70;17.05;;;;;;;8.96;65.02;102016.09;5052764;28;20445;-77
2022/12/03 09:01:49;;;;;;;;;;;;;;;9.08;64.74;102019.97;5053184;28;20116;-78
2022/12/03 09:04:29;;;;;;;37.45;16.02;;;;;;;9.13;64.84;102025.94;5052985;28;19987;-78
2022/12/03 09:06:56;;;;;;;32.00;15.40;;;;;;;8.96;64.14;102001.84;5052800;28;20025;-75
2022/12/03 09:09:22;;;;;;;30.58;16.90;;;;;;;9.11;64.68;102009.91;5041229;28;20128;-75
2022/12/03 09:11:48;;;;;;;38.92;15.77;;;;;;;9.26;64.82;102011.78;5031634;28;20139;-75
2022/12/03 09:14:16;;;;;;;47.67;18.10;;;;;;;9.31;64.36;102014.22;5030292;28;20029;-76
2022/12/03 09:16:42;;;;;;;35.15;15.55;;;;;;;9.34;63.64;102011.38;5033177;28;20133;-73
2022/12/03 09:19:07;;;;;;;25.13;14.73;;;;;;;9.32;63.81;102018.66;5031779;28;20033;-75
2022/12/03 09:21:33;;;;;;;29.90;15.50;;;;;;;9.19;63.86;101986.22;5031569;28;20124;-76
2022/12/03 09:23:59;;;;;;;43.75;18.02;;;;;;;9.32;64.21;101991.81;5031645;28;20485;-76
2022/12/03 09:26:25;;;;;;;31.98;15.85;;;;;;;9.55;63.95;102026.31;5039788;28;20117;-77
2022/12/03 09:28:51;;;;;;;28.13;15.65;;;;;;;9.53;63.70;102022.84;5055436;28;20033;-77
2022/12/03 09:31:16;;;;;;;32.40;15.73;;;;;;;9.61;63.61;102030.47;5057094;28;20028;-76
2022/12/03 09:33:42;;;;;;;35.38;16.63;;;;;;;9.64;62.80;102020.44;5054938;28;20075;-75
2022/12/03 09:36:07;;;;;;;29.75;15.10;;;;;;;9.63;62.68;102024.06;5052025;28;20044;-77
2022/12/03 09:38:33;;;;;;;31.30;15.98;;;;;;;9.45;62.68;101992.00;5049494;28;20469;-77
2022/12/03 09:40:59;;;;;;;37.85;16.05;;;;;;;9.60;62.63;102013.50;5033784;28;20033;-75
2022/12/03 09:43:29;;;;;;;40.05;17.30;;;;;;;9.59;63.32;102022.53;5051150;28;20880;-76
2022/12/03 09:45:55;;;;;;;68.40;20.35;;;;;;;9.52;63.50;101994.25;5051079;28;20032;-76
2022/12/03 09:48:21;;;;;;;33.22;16.58;;;;;;;9.55;63.05;102020.06;5051065;28;20032;-76
2022/12/03 09:50:47;;;;;;;49.33;18.92;;;;;;;9.57;63.33;102008.28;5050612;28;20737;-76
2022/12/03 09:53:19;;;;;;;43.90;17.75;;;;;;;9.66;62.99;102013.16;5050476;28;20040;-75
2022/12/03 09:55:46;;;;;;;37.13;16.50;;;;;;;9.59;63.26;102003.72;5050901;28;20036;-76
2022/12/03 09:58:14;;;;;;;41.28;16.85;;;;;;;9.57;62.27;102012.81;5050939;28;20032;-76
2022/12/03 10:00:41;;;;;;;35.53;17.17;;;;;;;9.56;62.94;102014.63;5052118;28;20090;-76
2022/12/03 10:03:11;;;;;;;33.25;17.45;;;;;;;9.68;63.62;102003.22;5052739;28;20029;-77
2022/12/03 10:05:37;;;;;;;37.88;16.13;;;;;;;9.76;63.28;102003.63;5049752;28;20032;-76
2022/12/03 10:08:09;;;;;;;30.83;15.75;;;;;;;9.70;62.69;101985.16;5050430;28;20029;-77
2022/12/03 10:10:37;;;;;;;58.73;25.17;;;;;;;9.83;62.82;101988.91;5050429;28;20028;-75
2022/12/03 10:13:03;;;;;;;35.35;17.85;;;;;;;9.92;62.99;102008.13;5050664;28;20045;-77
2022/12/03 10:15:29;;;;;;;36.38;18.65;;;;;;;9.90;62.22;102002.00;5050482;28;20056;-76
2022/12/03 10:17:56;;;;;;;35.33;17.35;;;;;;;9.88;62.72;102009.28;5050122;28;20111;-76
2022/12/03 10:20:23;;;;;;;42.53;18.38;;;;;;;9.95;62.45;101997.22;5047572;28;20084;-78
2022/12/03 10:22:49;;;;;;;57.10;20.67;;;;;;;9.84;62.43;101985.28;5050038;28;20115;-77
2022/12/03 10:25:18;;;;;;;73.97;19.20;;;;;;;9.94;62.38;101984.75;5050169;28;20163;-76
2022/12/03 10:27:58;;;;;;;55.80;19.33;;;;;;;9.87;62.24;101994.09;5050143;28;20029;-75
2022/12/03 10:30:27;;;;;;;32.65;17.33;;;;;;;9.92;62.47;101973.19;5050171;28;20036;-76
2022/12/03 10:32:54;;;;;;;95.75;22.85;;;;;;;9.87;62.37;101959.16;5055337;28;20080;-77
2022/12/03 10:35:34;;;;;;;43.22;16.83;;;;;;;10.11;61.75;101995.38;5055065;28;20389;-76
2022/12/03 10:38:05;;;;;;;36.85;17.17;;;;;;;10.18;62.02;101999.50;5052998;28;20179;-76
2022/12/03 10:40:36;;;;;;;31.13;15.23;;;;;;;10.11;61.81;101998.94;5051338;28;20032;-76
2022/12/03 10:43:17;;;;;;;40.83;17.23;;;;;;;10.17;62.16;101992.38;5051053;28;20025;-75
2022/12/03 10:45:46;;;;;;;39.40;16.63;;;;;;;10.01;61.89;101960.09;5050913;28;20400;-77
2022/12/03 10:48:24;;;;;;;67.47;24.27;;;;;;;10.15;62.06;101994.31;5050124;28;20499;-76
2022/12/03 10:50:50;;;;;;;45.40;21.15;;;;;;;10.24;62.20;101988.38;5050296;28;20057;-76
2022/12/03 10:53:17;;;;;;;38.85;20.58;;;;;;;10.11;61.39;101977.44;5050665;28;20118;-75
2022/12/03 10:55:44;;;;;;;42.67;19.63;;;;;;;10.03;62.14;101981.53;5050650;28;20033;-77
2022/12/03 10:58:21;;;;;;;45.75;18.13;;;;;;;10.32;62.32;101991.50;5050350;28;20052;-78
2022/12/03 11:00:47;;;;;;;52.53;20.20;;;;;;;10.42;61.60;101990.00;5047831;28;20079;-76
2022/12/03 11:03:18;;;;;;;30.98;18.30;;;;;;;10.25;61.84;101982.03;5049907;28;20094;-76
2022/12/03 11:05:44;;;;;;;39.90;17.27;;;;;;;10.45;61.09;101976.38;5050150;28;20151;-76
2022/12/03 11:08:24;;;;;;;28.45;15.43;;;;;;;10.55;61.08;101972.16;5050236;28;20552;-76
2022/12/03 11:11:04;;;;;;;35.03;18.67;;;;;;;10.61;60.49;101979.84;5049860;28;20116;-78
2022/12/03 11:13:32;;;;;;;36.22;18.75;;;;;;;10.75;61.00;101979.03;5049724;28;20489;-77
2022/12/03 11:15:59;;;;;;;45.25;18.63;;;;;;;10.82;60.70;101977.72;5049164;28;20056;-76
2022/12/03 11:18:37;;;;;;;33.33;16.05;;;;;;;10.87;60.45;101989.94;5049968;28;20025;-76
2022/12/03 11:21:03;;;;;;;36.78;18.98;;;;;;;10.81;59.83;101990.31;5050082;28;20460;-77
2022/12/03 11:23:57;;;;;;;39.92;23.83;;;;;;;10.70;59.93;101982.00;5049787;28;20063;-76
2022/12/03 11:26:26;;;;;;;54.45;26.33;;;;;;;10.59;60.55;101988.97;5048538;28;20045;-76
2022/12/03 11:28:53;;;;;;;59.40;25.45;;;;;;;10.49;60.74;101985.97;5049755;28;20032;-75
2022/12/03 11:31:37;;;;;;;37.50;20.50;;;;;;;10.44;61.34;101980.00;5049566;28;20119;-76
2022/12/03 11:34:18;;;;;;;49.83;22.83;;;;;;;10.39;61.30;101982.13;5049752;28;20112;-76
2022/12/03 11:37:08;;;;;;;59.58;27.75;;;;;;;10.46;61.64;101971.84;5068113;28;20045;-77
2022/12/03 11:39:55;;;;;;;43.13;22.55;;;;;;;10.43;61.30;101980.94;5055360;28;20110;-75
2022/12/03 11:42:26;;;;;;;45.47;20.17;;;;;;;10.30;61.62;101972.72;5052343;28;20033;-77